Flight Track Log - Related Links

Times and Time Zones

All times are in EDT time to prevent confusion due to time zone crossing. See the RPA3159 flight status page for this flight to view local times or setup timezone preferences in your user account.

Time Position Orientation Groundspeed Altitude Reporting Facility
EDT Latitude Longitude Course Direction KTS MPH feet Rate Location/Type
Tue 11:42:52 AM 44.4333 -73.2803 195° South 273 314 4,700  Level Boston Center
Tue 11:43:00 AM 44.2016 -73.2500 180° South  Level FlightAware Approximate
Tue 11:43:52 AM 44.3642 -73.3372 210° Southwest 292 336 8,600  Level Boston Center
Tue 11:44:00 AM 44.1127 -73.2828 195° South  Level FlightAware Approximate
Tue 11:44:52 AM 44.2886 -73.3942 208° Southwest 298 343 11,200  Level Boston Center
Tue 11:45:00 AM 44.0234 -73.3144 194° South  Level FlightAware Approximate
Tue 11:45:52 AM 44.1947 -73.4217 192° South 329 379 13,900  Level Boston Center
Tue 11:46:00 AM 43.9339 -73.3443 193° South  Level FlightAware Approximate
Tue 11:46:52 AM 44.0964 -73.4489 191° South 348 400 16,000  Level Boston Center
Tue 11:47:00 AM 43.8449 -73.3770 195° South  Level FlightAware Approximate
Tue 11:47:52 AM 43.9942 -73.4761 191° South 371 427 17,900  Level Boston Center
Tue 11:48:00 AM 43.7560 -73.4104 195° South  Level FlightAware Approximate
Tue 11:48:52 AM 43.8917 -73.5031 191° South 371 427 20,200  Level Boston Center
Tue 11:49:52 AM 43.7872 -73.5331 192° South 376 433 22,000 1,800 Climbing Boston Center
Tue 11:50:52 AM 43.6744 -73.5653 192° South 396 456 23,800 1,000 Climbing Boston Center
Tue 11:51:52 AM 43.5681 -73.5864 188° South 401 461 24,000 350 Climbing Boston Center
Tue 11:52:52 AM 43.4611 -73.6414 200° South 401 461 24,500 500 Climbing Boston Center
Tue 11:53:52 AM 43.3661 -73.7425 218° Southwest 406 467 25,000 750 Climbing Boston Center
Tue 11:54:52 AM 43.2669 -73.8458 217° Southwest 445 512 26,000 500 Climbing Boston Center
Tue 11:55:52 AM 43.1656 -73.9517 217° Southwest 451 519 26,000  Level Boston Center
Tue 11:56:52 AM 43.0789 -74.0461 219° Southwest 457 526 26,000  Level Boston Center
Tue 11:57:52 AM 42.9669 -74.1594 217° Southwest 457 526 26,000  Level Boston Center
Tue 11:58:52 AM 42.8758 -74.2506 216° Southwest 457 526 26,000  Level Boston Center
Tue 11:59:52 AM 42.7656 -74.3661 218° Southwest 462 532 26,000  Level Boston Center
Tue 12:00:52 PM 42.6742 -74.4592 217° Southwest 467 537 26,000  Level Boston Center
Tue 12:01:52 PM 42.5639 -74.5683 216° Southwest 462 532 26,000  Level Boston Center
Tue 12:02:52 PM 42.4725 -74.6611 217° Southwest 462 532 26,000  Level Boston Center
Tue 12:03:52 PM 42.3619 -74.7722 217° Southwest 462 532 26,000 -250 Level Boston Center
Tue 12:04:52 PM 42.2636 -74.8781 219° Southwest 457 526 25,500 -1,450 Descending Boston Center
Tue 12:05:52 PM 42.1658 -74.9722 216° Southwest 457 526 23,100 -2,021 Descending Boston Center
Tue 12:08:05 PM 41.9508 -75.1492 211° Southwest 433 498 19,000 -1,262 Descending New York Center
Tue 12:09:07 PM 41.8414 -75.2394 212° Southwest 421 484 19,000 -537 Level New York Center
Tue 12:10:08 PM 41.7722 -75.3572 232° Southwest 408 470 17,900 -1,250 Descending New York Center
Tue 12:11:07 PM 41.7336 -75.4961 250° West 403 464 16,500 -1,373 Descending New York Center
Tue 12:12:06 PM 41.7078 -75.6194 254° West 387 445 15,200 -1,361 Descending New York Center
Tue 12:13:06 PM 41.6667 -75.7581 248° West 382 440 13,800 -1,339 Descending New York Center
Tue 12:14:07 PM 41.5700 -75.7786 189° South 341 392 12,500 -885 Descending New York Center
Tue 12:15:08 PM 41.4692 -75.7517 169° South 348 400 12,000 -248 Descending New York Center
Tue 12:16:08 PM 41.3642 -75.7161 166° South 371 427 12,000  Level New York Center
Tue 12:17:06 PM 41.2569 -75.6917 170° South 383 441 12,000  Level New York Center
Tue 12:18:06 PM 41.1550 -75.6900 179° South 383 441 12,000  Level New York Center
Tue 12:19:07 PM 41.0347 -75.6783 176° South 388 447 12,000  Level New York Center
Tue 12:20:07 PM 40.9525 -75.6478 164° South 373 429 12,000 -450 Level New York Center
Tue 12:21:07 PM 40.8564 -75.6053 162° South 338 389 11,100 -500 Descending New York Center
Tue 12:22:07 PM 40.7725 -75.5692 162° South 319 367 11,000 -50 Descending New York Center
Tue 12:23:08 PM 40.6864 -75.5331 162° South 319 367 11,000 -198 Level New York Center
Tue 12:24:08 PM 40.6003 -75.4969 162° South 319 367 10,600 -513 Descending New York Center
Tue 12:25:05 PM 40.5244 -75.4644 162° South 319 367 10,000 -661 Descending New York Center
Tue 12:26:06 PM 40.4406 -75.4286 162° South 306 352 9,300 -639 Descending New York Center
Tue 12:27:07 PM 40.3775 -75.3889 154° Southeast 282 325 8,700 -942 Descending New York Center
Tue 12:28:07 PM 40.3081 -75.3489 156° South 276 318 7,400 -1,289 Descending New York Center
Tue 12:29:08 PM 40.2347 -75.3061 156° South 264 304 6,100 -694 Descending New York Center
Tue 12:30:08 PM 40.1714 -75.2719 158° South 254 292 6,000 -51 Descending New York Center
Tue 12:31:06 PM 40.1103 -75.2383 157° South 239 275 6,000  Level New York Center
Tue 12:32:07 PM 40.0531 -75.2075 158° South 234 269 6,000 -47 Level New York Center
Tue 12:33:13 PM 39.9833 -75.1667 156° South 228 262 5,900 -95 Descending Philadelphia TRACON
Tue 12:34:13 PM 39.9833 -75.1000 90° East 190 219 5,800 -550 Descending Philadelphia TRACON
Tue 12:35:13 PM 40.0000 -75.0333 72° East 169 194 4,800 -942 Descending Philadelphia TRACON
Tue 12:36:14 PM 40.0000 -74.9833 90° East 190 219 3,900 -446 Descending Philadelphia TRACON
Tue 12:37:14 PM 39.9667 -74.9500 143° Southeast 199 229 3,900 -250 Level Philadelphia TRACON
Tue 12:38:14 PM 39.9167 -75.0000 217° Southwest 192 221 3,400 -500 Descending Philadelphia TRACON

Login

Don't have an account? Register now (free) for customized features, flight alerts, and more!